Time;durP1;ratioP1;P1;durP2;ratioP2;P2;SDS_P1;SDS_P2;PMS_P1;PMS_P2;Temp;Humidity;BMP_temperature;BMP_pressure;BME280_temperature;BME280_humidity;BME280_pressure;Samples;Min_cycle;Max_cycle;Signal;HPM_P1;HPM_P2
2023/06/02 00:00:12;;;;;;;5.60;3.47;;;22.30;38.00;;;;;;2353027;53;22063;-69
2023/06/02 00:02:39;;;;;;;4.78;2.65;;;22.30;37.80;;;;;;2592474;53;20930;-69
2023/06/02 00:05:11;;;;;;;4.47;2.65;;;22.20;37.80;;;;;;2603274;53;20950;-69
2023/06/02 00:07:37;;;;;;;5.82;2.58;;;22.20;37.90;;;;;;2354541;54;20953;-68
2023/06/02 00:10:04;;;;;;;4.85;2.62;;;22.20;37.90;;;;;;2354521;54;20986;-70
2023/06/02 00:12:31;;;;;;;5.53;2.78;;;22.10;37.80;;;;;;2348459;53;21065;-68
2023/06/02 00:14:58;;;;;;;5.82;3.33;;;22.10;38.00;;;;;;2352390;53;20922;-69
2023/06/02 00:17:24;;;;;;;4.20;2.58;;;22.00;38.00;;;;;;2602695;53;21474;-71
2023/06/02 00:19:50;;;;;;;5.75;3.15;;;21.90;37.90;;;;;;2355175;54;20930;-69
2023/06/02 00:22:17;;;;;;;4.90;3.10;;;21.90;38.00;;;;;;2355181;54;21747;-70
2023/06/02 00:24:46;;;;;;;4.60;2.62;;;21.80;38.00;;;;;;2354536;54;21069;-68
2023/06/02 00:27:12;;;;;;;4.65;2.53;;;21.70;38.10;;;;;;2348649;53;20965;-70
2023/06/02 00:29:38;;;;;;;5.18;2.65;;;21.70;38.10;;;;;;2353435;54;20918;-68
2023/06/02 00:32:07;;;;;;;4.53;2.80;;;21.60;38.10;;;;;;2354121;54;21479;-69
2023/06/02 00:34:33;;;;;;;6.95;3.45;;;21.50;38.10;;;;;;2353277;54;21772;-72
2023/06/02 00:36:59;;;;;;;4.87;3.03;;;21.50;38.30;;;;;;2603369;53;21003;-69
2023/06/02 00:39:26;;;;;;;5.53;2.80;;;21.40;38.30;;;;;;2603634;53;20931;-68
2023/06/02 00:41:52;;;;;;;5.37;2.85;;;21.40;38.40;;;;;;2354701;54;21506;-69
2023/06/02 00:44:32;;;;;;;4.97;2.80;;;21.30;38.40;;;;;;2354578;54;20982;-68
2023/06/02 00:46:58;;;;;;;5.53;2.92;;;21.30;38.60;;;;;;2602073;53;20986;-71
2023/06/02 00:49:25;;;;;;;4.75;2.72;;;21.20;38.40;;;;;;2343654;53;20961;-71
2023/06/02 00:51:51;;;;;;;4.95;3.12;;;21.10;38.40;;;;;;2603765;53;20995;-68
2023/06/02 00:54:19;;;;;;;5.47;3.40;;;21.00;38.50;;;;;;2352954;54;21990;-69
2023/06/02 00:56:46;;;;;;;4.97;2.97;;;21.00;38.70;;;;;;2353912;53;20982;-70
2023/06/02 00:59:13;;;;;;;5.47;3.22;;;20.90;38.70;;;;;;2601587;53;20926;-68
2023/06/02 01:01:39;;;;;;;6.37;3.15;;;20.90;38.80;;;;;;2603114;53;20934;-68
2023/06/02 01:04:07;;;;;;;5.12;2.87;;;20.80;38.90;;;;;;2353843;54;21785;-70
2023/06/02 01:06:36;;;;;;;5.70;3.37;;;20.80;39.10;;;;;;2353880;54;21796;-68
2023/06/02 01:09:03;;;;;;;6.40;3.20;;;20.70;39.10;;;;;;2602842;53;20898;-68
2023/06/02 01:11:29;;;;;;;5.00;2.83;;;20.70;39.10;;;;;;2354015;54;20997;-71
2023/06/02 01:13:57;;;;;;;6.20;3.20;;;20.60;39.00;;;;;;2603219;53;21396;-71
2023/06/02 01:16:23;;;;;;;4.80;2.80;;;20.60;39.10;;;;;;2603207;53;21065;-69
2023/06/02 01:18:51;;;;;;;5.05;2.67;;;20.50;39.20;;;;;;2604373;53;20906;-69
2023/06/02 01:21:23;;;;;;;5.40;2.92;;;20.50;39.30;;;;;;2354643;54;21036;-68
2023/06/02 01:23:57;;;;;;;6.37;3.22;;;20.40;39.30;;;;;;2355031;54;20965;-68
2023/06/02 01:26:23;;;;;;;4.78;2.87;;;20.30;39.50;;;;;;2354618;54;21033;-67
2023/06/02 01:28:50;;;;;;;4.50;2.62;;;20.30;39.40;;;;;;2354873;54;20915;-68
2023/06/02 01:31:39;;;;;;;4.25;2.50;;;20.20;39.40;;;;;;2354282;54;20983;-68
2023/06/02 01:34:31;;;;;;;5.03;2.90;;;20.20;39.80;;;;;;2603585;53;21009;-70
2023/06/02 01:36:57;;;;;;;4.12;2.37;;;20.10;39.50;;;;;;2354901;54;20962;-71
2023/06/02 01:39:24;;;;;;;4.35;2.70;;;20.10;39.40;;;;;;2354605;54;20894;-69
2023/06/02 01:41:50;;;;;;;4.72;2.40;;;20.00;39.50;;;;;;2355047;54;21718;-70
2023/06/02 01:44:16;;;;;;;4.50;2.40;;;20.00;39.60;;;;;;2354683;54;20977;-68
2023/06/02 01:46:44;;;;;;;4.50;2.65;;;19.90;39.60;;;;;;2354600;54;20973;-68
2023/06/02 01:49:17;;;;;;;4.20;2.60;;;19.90;39.70;;;;;;2353973;54;20918;-69
2023/06/02 01:51:44;;;;;;;4.80;2.80;;;19.80;39.80;;;;;;2354977;54;21540;-69
2023/06/02 01:54:10;;;;;;;4.62;2.45;;;19.70;39.70;;;;;;2355057;54;21672;-71
2023/06/02 01:56:37;;;;;;;4.43;2.67;;;19.70;39.70;;;;;;2354092;54;20938;-68
2023/06/02 01:59:03;;;;;;;4.47;2.65;;;19.60;39.80;;;;;;2354297;54;20982;-71
2023/06/02 02:01:30;;;;;;;4.57;2.33;;;19.60;39.90;;;;;;2354550;54;21489;-68
2023/06/02 02:03:57;;;;;;;5.25;2.90;;;19.50;40.00;;;;;;2355161;54;21057;-68
2023/06/02 02:06:34;;;;;;;5.28;2.85;;;19.40;40.10;;;;;;2604096;53;21033;-68
2023/06/02 02:09:00;;;;;;;5.07;2.50;;;19.40;40.20;;;;;;2354158;54;20898;-68
2023/06/02 02:11:27;;;;;;;4.53;2.33;;;19.30;40.10;;;;;;2604378;53;21462;-73
2023/06/02 02:13:54;;;;;;;5.30;2.60;;;19.30;40.20;;;;;;2603917;53;20994;-69
2023/06/02 02:16:20;;;;;;;4.68;2.70;;;19.20;40.20;;;;;;2353532;54;20953;-68
2023/06/02 02:18:47;;;;;;;4.80;2.60;;;19.20;40.30;;;;;;2354888;54;20890;-69
2023/06/02 02:21:13;;;;;;;5.40;2.45;;;19.10;40.30;;;;;;2603454;53;20914;-73
2023/06/02 02:23:40;;;;;;;4.65;2.28;;;19.10;40.40;;;;;;2599106;53;20930;-69
2023/06/02 02:26:06;;;;;;;8.95;2.95;;;19.00;40.40;;;;;;2590786;53;20938;-68
2023/06/02 02:28:33;;;;;;;4.93;2.65;;;19.00;40.50;;;;;;2354801;54;20914;-69
2023/06/02 02:30:59;;;;;;;3.75;2.00;;;18.90;40.40;;;;;;2353860;54;20945;-69
2023/06/02 02:33:27;;;;;;;4.70;2.62;;;18.90;40.50;;;;;;2602847;53;21858;-67
2023/06/02 02:35:53;;;;;;;5.22;3.05;;;18.80;40.60;;;;;;2603938;53;20977;-71
2023/06/02 02:38:20;;;;;;;4.50;2.60;;;18.80;40.70;;;;;;2354583;54;21663;-68
2023/06/02 02:40:46;;;;;;;5.43;2.80;;;18.70;40.70;;;;;;2354361;54;20926;-69
2023/06/02 02:43:12;;;;;;;4.20;2.47;;;18.70;40.70;;;;;;2351002;53;20973;-68
2023/06/02 02:45:42;;;;;;;4.07;2.30;;;18.60;40.70;;;;;;2349611;54;20891;-70
2023/06/02 02:48:08;;;;;;;4.40;2.35;;;18.60;40.90;;;;;;2603539;53;20998;-72
2023/06/02 02:50:35;;;;;;;4.32;2.45;;;18.60;40.90;;;;;;2354423;54;21542;-69
2023/06/02 02:53:05;;;;;;;5.72;2.50;;;18.50;41.00;;;;;;2354574;54;20975;-68
2023/06/02 02:55:32;;;;;;;5.32;2.90;;;18.50;41.20;;;;;;2345953;53;20942;-70
2023/06/02 02:58:01;;;;;;;4.30;2.70;;;18.40;41.20;;;;;;2590173;53;20932;-67
2023/06/02 03:00:39;;;;;;;4.72;2.47;;;18.40;41.40;;;;;;2347054;53;20994;-68
2023/06/02 03:03:14;;;;;;;5.22;2.35;;;18.30;41.50;;;;;;2353840;54;20922;-67
2023/06/02 03:05:47;;;;;;;4.18;2.12;;;18.30;41.50;;;;;;2354162;54;21005;-69
2023/06/02 03:08:19;;;;;;;4.30;2.37;;;18.20;41.30;;;;;;2600236;53;20954;-67
2023/06/02 03:10:50;;;;;;;4.68;2.37;;;18.20;41.30;;;;;;2345696;53;20926;-69
2023/06/02 03:13:20;;;;;;;4.68;2.30;;;18.10;41.30;;;;;;2590657;52;20974;-70
2023/06/02 03:15:53;;;;;;;5.07;2.33;;;18.10;41.30;;;;;;2352003;53;21006;-68
2023/06/02 03:18:36;;;;;;;4.87;2.22;;;18.00;41.40;;;;;;2351001;53;21014;-67
2023/06/02 03:21:49;;;;;;;4.22;2.45;;;18.00;42.10;;;;;;2603088;53;21590;-68
2023/06/02 03:24:27;;;;;;;4.40;2.12;;;17.90;41.80;;;;;;2602667;53;21013;-71
2023/06/02 03:27:03;;;;;;;4.12;2.40;;;17.90;41.80;;;;;;2601947;53;20997;-69
2023/06/02 03:29:37;;;;;;;4.45;2.30;;;17.90;41.80;;;;;;2357345;54;21812;-68
2023/06/02 03:32:12;;;;;;;3.90;2.17;;;17.80;41.60;;;;;;2358728;54;20936;-68
2023/06/02 03:35:30;;;;;;;4.22;2.40;;;17.80;41.60;;;;;;2355275;54;20982;-68
2023/06/02 03:42:00;;;;;;;3.42;1.98;;;17.70;42.10;;;;;;2585523;53;22243;-70
2023/06/02 03:44:58;;;;;;;3.85;2.00;;;17.70;41.70;;;;;;2335274;54;20977;-68
2023/06/02 03:47:53;;;;;;;3.72;1.98;;;17.60;42.00;;;;;;2566145;53;20921;-71
2023/06/02 03:50:42;;;;;;;3.60;1.90;;;17.60;42.20;;;;;;2541866;53;21103;-68
2023/06/02 03:53:58;;;;;;;3.78;1.90;;;17.50;42.00;;;;;;2519183;54;20996;-68
2023/06/02 03:56:58;;;;;;;5.75;2.55;;;17.50;42.50;;;;;;2554523;53;20988;-72
2023/06/02 03:59:44;;;;;;;5.60;2.67;;;17.40;42.20;;;;;;2565072;53;21556;-68
2023/06/02 04:02:36;;;;;;;3.97;2.20;;;17.40;42.10;;;;;;2355105;54;21028;-69
2023/06/02 04:06:35;;;;;;;;;;;;;;;;;;;;;
2023/06/02 04:09:32;;;;;;;4.27;2.33;;;17.30;42.60;;;;;;2338116;53;21030;-68
2023/06/02 04:12:06;;;;;;;4.47;2.47;;;17.30;42.40;;;;;;2569681;53;20929;-69
2023/06/02 04:14:59;;;;;;;4.40;2.35;;;17.30;43.00;;;;;;2343646;53;20964;-72
2023/06/02 04:17:51;;;;;;;5.25;2.80;;;17.30;42.70;;;;;;2601507;52;20964;-70
2023/06/02 04:20:24;;;;;;;4.95;2.70;;;17.20;42.60;;;;;;2556733;53;21460;-68
2023/06/02 04:22:57;;;;;;;4.82;2.58;;;17.20;42.70;;;;;;2316942;54;21419;-68
2023/06/02 04:25:48;;;;;;;4.72;2.50;;;17.20;42.80;;;;;;2531973;53;20994;-68
2023/06/02 04:32:07;;;;;;;6.10;3.33;;;17.20;43.10;;;;;;2344104;53;21005;-68
2023/06/02 04:34:51;;;;;;;6.25;2.75;;;17.20;43.10;;;;;;2576632;53;20990;-69
2023/06/02 04:37:32;;;;;;;4.15;2.53;;;17.20;43.50;;;;;;2337573;53;21008;-70
2023/06/02 04:40:42;;;;;;;4.45;2.65;;;17.20;43.30;;;;;;2582548;52;21849;-69
2023/06/02 04:45:14;;;;;;;;;;;;;;;;;;;;;
2023/06/02 04:48:02;;;;;;;3.80;2.28;;;17.20;44.00;;;;;;2370964;53;20946;-68
2023/06/02 04:50:47;;;;;;;4.53;2.72;;;17.20;43.40;;;;;;2611140;52;20897;-71
2023/06/02 04:53:28;;;;;;;4.93;2.85;;;17.20;44.20;;;;;;2579873;52;21051;-71
2023/06/02 05:04:21;;;;;;;6.60;2.70;;;17.20;43.90;;;;;;2341624;53;20931;-68
2023/06/02 05:07:57;;;;;;;4.28;1.70;;;17.30;44.50;;;;;;2370637;54;21481;-67
2023/06/02 05:13:40;;;;;;;4.10;2.37;;;17.40;44.00;;;;;;2601519;52;20996;-68
2023/06/02 05:16:31;;;;;;;4.62;2.42;;;17.40;44.90;;;;;;2363657;53;21109;-68
2023/06/02 05:19:42;;;;;;;5.30;2.72;;;17.40;44.40;;;;;;2367496;54;21867;-68
2023/06/02 05:22:42;;;;;;;7.10;2.70;;;17.40;44.40;;;;;;2360786;53;21001;-68
2023/06/02 05:26:01;;;;;;;;;;;;;;;;;;;;;
2023/06/02 05:29:03;;;;;;;5.32;2.65;;;17.50;44.70;;;;;;2595178;52;21602;-68
2023/06/02 05:31:39;;;;;;;4.70;2.47;;;17.50;45.00;;;;;;2368955;53;21059;-69
2023/06/02 05:34:08;;;;;;;5.25;2.50;;;17.50;44.50;;;;;;2337688;54;21137;-69
2023/06/02 05:44:46;;;;;;;3.75;2.00;;;17.60;44.70;;;;;;2572067;53;21541;-70
2023/06/02 05:47:43;;;;;;;5.32;2.75;;;17.70;44.80;;;;;;2591501;53;21928;-68
2023/06/02 05:50:33;;;;;;;;;;;;;;;;;;;;;
2023/06/02 05:53:06;;;;;;;4.93;3.15;;;17.70;44.80;;;;;;2592259;52;21087;-68
2023/06/02 05:59:19;;;;;;;6.70;3.35;;;17.70;44.70;;;;;;2606863;52;20997;-67
2023/06/02 06:02:08;;;;;;;5.18;2.42;;;17.80;44.90;;;;;;2605807;52;20968;-68
2023/06/02 06:05:57;;;;;;;4.62;2.62;;;17.80;44.60;;;;;;2471152;55;20989;-70
2023/06/02 06:08:27;;;;;;;5.30;2.90;;;17.80;44.90;;;;;;2499622;55;21491;-70
2023/06/02 06:11:27;;;;;;;5.65;3.25;;;17.80;45.00;;;;;;2457943;55;21589;-68
2023/06/02 06:14:02;;;;;;;5.32;3.15;;;17.90;45.60;;;;;;2502748;55;21065;-70
2023/06/02 06:16:32;;;;;;;4.82;2.72;;;17.90;45.20;;;;;;2503006;55;20979;-69
2023/06/02 06:19:02;;;;;;;5.55;3.17;;;17.90;45.40;;;;;;2273374;55;21030;-68
2023/06/02 06:21:30;;;;;;;4.43;2.65;;;17.90;45.50;;;;;;2256477;55;21544;-69
2023/06/02 06:24:09;;;;;;;4.78;2.80;;;18.00;45.70;;;;;;2476769;55;20981;-68
2023/06/02 06:26:39;;;;;;;4.55;3.15;;;18.00;45.80;;;;;;2265839;55;21020;-71
2023/06/02 06:29:14;;;;;;;4.37;2.97;;;18.10;46.10;;;;;;2271783;55;20954;-71
2023/06/02 06:31:44;;;;;;;4.28;2.70;;;18.10;46.00;;;;;;2503350;55;21810;-67
2023/06/02 06:34:11;;;;;;;5.10;3.10;;;18.20;46.10;;;;;;2270476;57;21010;-68
2023/06/02 06:36:37;;;;;;;5.05;3.55;;;18.20;46.00;;;;;;2255659;55;20970;-68
2023/06/02 06:39:04;;;;;;;6.30;3.30;;;18.20;46.00;;;;;;2253383;56;21053;-68
2023/06/02 06:41:40;;;;;;;5.37;3.17;;;18.30;46.10;;;;;;2600588;52;20938;-69
2023/06/02 06:44:09;;;;;;;5.80;3.10;;;18.20;46.00;;;;;;2615340;52;21219;-68
2023/06/02 06:46:36;;;;;;;5.25;3.37;;;18.40;46.20;;;;;;2614475;52;21491;-68
2023/06/02 06:49:02;;;;;;;6.00;3.08;;;18.40;46.20;;;;;;2363461;53;21005;-69
2023/06/02 06:51:29;;;;;;;6.65;4.15;;;18.40;46.10;;;;;;2615694;52;20966;-68
2023/06/02 06:53:57;;;;;;;6.93;3.70;;;18.50;46.20;;;;;;2364286;53;21042;-71
2023/06/02 06:56:25;;;;;;;5.60;3.45;;;18.50;46.20;;;;;;2363838;53;20968;-67
2023/06/02 06:58:52;;;;;;;8.15;3.67;;;18.50;46.20;;;;;;2364777;53;20970;-71
2023/06/02 07:01:18;;;;;;;6.35;3.70;;;18.50;46.20;;;;;;2363712;53;21012;-68
2023/06/02 07:03:44;;;;;;;8.13;3.05;;;18.50;46.20;;;;;;2605451;52;20983;-68
2023/06/02 07:06:11;;;;;;;5.75;3.25;;;18.60;46.30;;;;;;2364621;53;21046;-70
2023/06/02 07:08:38;;;;;;;6.40;2.97;;;18.60;46.30;;;;;;2615920;52;20998;-68
2023/06/02 07:11:04;;;;;;;4.40;2.50;;;18.60;46.30;;;;;;2614898;52;21003;-68
2023/06/02 07:13:30;;;;;;;4.37;2.95;;;18.70;46.40;;;;;;2364697;53;21489;-68
2023/06/02 07:15:57;;;;;;;6.25;3.45;;;18.80;46.60;;;;;;2364476;53;20934;-68
2023/06/02 07:18:24;;;;;;;6.12;3.65;;;18.80;46.60;;;;;;2363769;53;20954;-68
2023/06/02 07:20:50;;;;;;;4.82;2.72;;;18.90;46.60;;;;;;2615770;52;20922;-68
2023/06/02 07:23:16;;;;;;;8.23;2.95;;;18.90;46.60;;;;;;2615062;52;21408;-71
2023/06/02 07:25:43;;;;;;;5.93;3.53;;;19.00;46.70;;;;;;2578271;52;20930;-73
2023/06/02 07:28:09;;;;;;;5.62;3.20;;;19.00;46.70;;;;;;2615150;52;21046;-69
2023/06/02 07:30:36;;;;;;;4.90;2.90;;;19.10;46.80;;;;;;2364282;53;20942;-69
2023/06/02 07:33:02;;;;;;;6.72;3.37;;;19.20;46.90;;;;;;2614701;52;20927;-68
2023/06/02 07:35:28;;;;;;;4.68;3.10;;;19.10;46.80;;;;;;2364360;53;20957;-68
2023/06/02 07:37:55;;;;;;;5.18;3.15;;;19.30;46.70;;;;;;2615727;52;20966;-69
2023/06/02 07:40:23;;;;;;;4.47;2.60;;;19.40;46.60;;;;;;2615116;52;20935;-71
2023/06/02 07:42:50;;;;;;;5.90;2.90;;;19.40;46.50;;;;;;2365163;53;20895;-69
2023/06/02 07:45:17;;;;;;;5.65;3.30;;;19.50;46.80;;;;;;2364062;53;20958;-68
2023/06/02 07:47:43;;;;;;;5.47;2.95;;;19.50;46.70;;;;;;2363628;53;20913;-68
2023/06/02 07:50:10;;;;;;;5.90;3.28;;;19.60;46.60;;;;;;2607082;52;21073;-70
2023/06/02 07:52:36;;;;;;;5.72;3.33;;;19.60;46.60;;;;;;2364516;53;21926;-68
2023/06/02 07:55:03;;;;;;;6.07;3.55;;;19.70;46.60;;;;;;2364258;53;22010;-69
2023/06/02 07:57:31;;;;;;;5.25;3.10;;;19.70;46.40;;;;;;2363849;53;20982;-69
2023/06/02 07:59:57;;;;;;;8.52;3.92;;;19.80;46.30;;;;;;2364848;53;21010;-68
2023/06/02 08:02:24;;;;;;;4.87;3.08;;;19.80;46.30;;;;;;2364257;53;20974;-69
2023/06/02 08:04:53;;;;;;;4.35;2.75;;;19.80;46.40;;;;;;2615758;52;21442;-69
2023/06/02 08:07:21;;;;;;;6.03;3.03;;;19.90;46.50;;;;;;2575610;53;21073;-69
2023/06/02 08:09:47;;;;;;;5.32;3.25;;;19.90;46.40;;;;;;2337183;54;20938;-67
2023/06/02 08:12:14;;;;;;;5.43;2.72;;;20.00;46.60;;;;;;2364536;53;20906;-68
2023/06/02 08:14:40;;;;;;;5.53;3.28;;;20.00;46.70;;;;;;2364728;53;21793;-68
2023/06/02 08:17:08;;;;;;;5.53;2.97;;;20.10;46.80;;;;;;2363596;53;20972;-72
2023/06/02 08:19:35;;;;;;;4.90;2.92;;;20.20;46.70;;;;;;2607070;52;21033;-69
2023/06/02 08:22:02;;;;;;;5.57;3.05;;;20.20;46.60;;;;;;2364188;53;21030;-67
2023/06/02 08:24:29;;;;;;;5.93;3.20;;;20.30;46.60;;;;;;2615963;52;21005;-68
2023/06/02 08:26:55;;;;;;;5.75;3.30;;;20.40;46.60;;;;;;2616027;52;20959;-70
2023/06/02 08:29:24;;;;;;;5.90;3.17;;;20.40;46.50;;;;;;2615237;52;21521;-68
2023/06/02 08:31:51;;;;;;;4.90;2.92;;;20.40;46.30;;;;;;2366702;53;21008;-70
2023/06/02 08:34:20;;;;;;;5.43;2.78;;;20.50;46.50;;;;;;2364597;53;21893;-68
2023/06/02 08:36:49;;;;;;;4.75;2.65;;;20.60;46.80;;;;;;2365221;53;20966;-68
2023/06/02 08:39:17;;;;;;;5.93;2.60;;;20.60;46.80;;;;;;2365276;53;20984;-70
2023/06/02 08:41:47;;;;;;;4.60;2.83;;;20.70;46.70;;;;;;2615505;52;20907;-70
2023/06/02 08:44:14;;;;;;;5.45;3.03;;;20.80;46.80;;;;;;2363456;53;20989;-70
2023/06/02 08:46:41;;;;;;;4.53;2.85;;;20.80;46.70;;;;;;2359830;53;20999;-69
2023/06/02 08:49:08;;;;;;;5.03;2.95;;;20.90;46.70;;;;;;2608242;52;20911;-70
2023/06/02 08:51:37;;;;;;;5.45;3.15;;;21.00;46.70;;;;;;2354325;53;20930;-68
2023/06/02 08:54:07;;;;;;;5.30;2.87;;;21.10;46.70;;;;;;2364789;53;20966;-69
2023/06/02 08:56:33;;;;;;;5.20;3.10;;;21.10;46.70;;;;;;2615562;52;21014;-67
2023/06/02 08:58:59;;;;;;;5.12;2.62;;;21.20;46.70;;;;;;2364180;53;20938;-68
2023/06/02 09:01:26;;;;;;;4.10;2.30;;;21.20;46.60;;;;;;2614594;52;20907;-69
2023/06/02 09:03:52;;;;;;;4.53;2.90;;;21.30;46.70;;;;;;2615602;52;20895;-68
2023/06/02 09:06:20;;;;;;;4.82;3.15;;;21.40;46.70;;;;;;2363993;53;21713;-68
2023/06/02 09:08:58;;;;;;;4.95;2.87;;;21.50;46.70;;;;;;2364859;53;20942;-69
2023/06/02 09:11:26;;;;;;;5.97;3.12;;;21.60;46.70;;;;;;2614297;52;21788;-69
2023/06/02 09:13:53;;;;;;;5.40;3.10;;;21.60;46.40;;;;;;2364504;53;21057;-68
2023/06/02 09:16:20;;;;;;;4.37;2.67;;;21.70;46.40;;;;;;2613364;52;20942;-73
2023/06/02 09:18:58;;;;;;;6.30;3.70;;;21.70;46.30;;;;;;2605986;52;20932;-68
2023/06/02 09:21:32;;;;;;;5.20;3.15;;;21.80;46.30;;;;;;2611310;52;21023;-69
2023/06/02 09:24:08;;;;;;;4.80;2.80;;;21.80;46.20;;;;;;2364112;53;20985;-69
2023/06/02 09:26:57;;;;;;;5.07;3.00;;;21.90;46.30;;;;;;2361790;53;21003;-71
2023/06/02 09:30:04;;;;;;;5.62;2.65;;;22.00;46.40;;;;;;2554080;52;21026;-69
2023/06/02 09:32:55;;;;;;;4.22;2.40;;;22.00;46.30;;;;;;2614101;52;21819;-69
2023/06/02 09:36:04;;;;;;;5.82;2.87;;;22.20;46.10;;;;;;2583722;52;21000;-68
2023/06/02 09:48:39;;;;;;;4.40;2.53;;;22.30;46.00;;;;;;2591043;52;20943;-69
2023/06/02 09:58:03;;;;;;;5.05;2.15;;;22.50;46.30;;;;;;2348608;54;20995;-70
2023/06/02 10:18:57;;;;;;;3.97;2.12;;;23.00;45.30;;;;;;2410757;56;21089;-71
2023/06/02 10:44:25;;;;;;;4.18;2.65;;;23.10;45.50;;;;;;2376109;56;21011;-70
2023/06/02 11:26:01;;;;;;;;;;;;;;;;;;;;;
2023/06/02 12:10:05;;;;;;;;;;;;;;;;;;;;;
2023/06/02 12:32:16;;;;;;;;;;;;;;;;;;;;;
2023/06/02 12:39:04;;;;;;;5.00;2.35;;;25.70;43.10;;;;;;2469180;55;21045;-70
2023/06/02 12:42:01;;;;;;;5.45;2.83;;;25.70;43.00;;;;;;2498091;54;20992;-70
2023/06/02 12:49:02;;;;;;;;;;;;;;;;;;;;;
2023/06/02 12:57:40;;;;;;;5.97;2.50;;;25.90;43.40;;;;;;2261031;55;21072;-67
2023/06/02 13:07:55;;;;;;;3.50;2.10;;;26.00;43.40;;;;;;2444285;55;21034;-69
2023/06/02 13:11:03;;;;;;;3.85;2.30;;;26.40;42.60;;;;;;2493489;55;21024;-69
2023/06/02 13:14:12;;;;;;;6.45;2.33;;;26.50;42.10;;;;;;2476372;54;21002;-69
2023/06/02 13:22:03;;;;;;;3.62;2.40;;;26.50;42.00;;;;;;2270022;55;21101;-69
2023/06/02 13:26:23;;;;;;;4.05;2.08;;;26.60;42.10;;;;;;2338098;58;21112;-66
2023/06/02 13:35:38;;;;;;;6.60;2.47;;;26.60;41.60;;;;;;2390520;57;22104;-68
2023/06/02 14:21:51;;;;;;;3.55;1.60;;;26.70;41.50;;;;;;2390410;56;27553;-69
2023/06/02 14:30:07;;;;;;;3.15;1.75;;;27.30;39.10;;;;;;2216011;61;21120;-72
2023/06/02 15:02:14;;;;;;;4.32;1.58;;;27.30;37.90;;;;;;2338959;57;21559;-74
2023/06/02 15:52:21;;;;;;;3.55;1.80;;;27.40;38.20;;;;;;2107690;60;21113;-74
2023/06/02 16:05:09;;;;;;;3.53;1.70;;;27.20;37.00;;;;;;2200341;61;21178;-71
2023/06/02 16:26:28;;;;;;;6.25;1.80;;;27.20;36.80;;;;;;2350649;57;21068;-70
2023/06/02 17:01:27;;;;;;;;;;;;;;;;;;;;;
2023/06/02 20:34:51;;;;;;;;;;;;;;;;;;;;;
2023/06/02 20:48:09;;;;;;;;;;;;;;;;;;;;;
2023/06/02 20:51:11;;;;;;;2.95;1.05;;;23.20;36.50;;;;;;2304031;59;21008;-69
2023/06/02 20:54:32;;;;;;;2.92;1.10;;;23.10;36.90;;;;;;2370242;56;21044;-69
2023/06/02 20:57:27;;;;;;;4.35;1.20;;;23.00;36.90;;;;;;2153547;58;21114;-69
2023/06/02 21:00:19;;;;;;;2.67;1.00;;;23.00;37.00;;;;;;2379969;57;21016;-71
2023/06/02 21:03:10;;;;;;;2.35;1.08;;;22.80;37.00;;;;;;2164325;58;21067;-72
2023/06/02 21:05:36;;;;;;;2.55;1.23;;;22.80;36.90;;;;;;2403001;57;21006;-70
2023/06/02 21:08:03;;;;;;;3.58;1.20;;;22.70;37.00;;;;;;2408317;57;21021;-70
2023/06/02 21:10:31;;;;;;;2.78;1.10;;;22.70;37.10;;;;;;2184185;58;21021;-69
2023/06/02 21:12:58;;;;;;;1.98;0.82;;;22.60;37.10;;;;;;2397835;57;20988;-69
2023/06/02 21:15:27;;;;;;;3.20;1.40;;;22.60;37.20;;;;;;2398553;57;20944;-69
2023/06/02 21:17:54;;;;;;;2.33;1.10;;;22.50;37.20;;;;;;2186763;58;21022;-71
2023/06/02 21:20:23;;;;;;;2.97;1.10;;;22.50;37.30;;;;;;2395383;58;21029;-69
2023/06/02 21:22:50;;;;;;;4.50;1.27;;;22.40;37.40;;;;;;2395939;58;20994;-73
2023/06/02 21:25:17;;;;;;;2.10;1.10;;;22.40;37.50;;;;;;2183211;58;21780;-73
2023/06/02 21:27:45;;;;;;;3.58;1.40;;;22.30;37.50;;;;;;2184001;58;21056;-69
2023/06/02 21:30:13;;;;;;;2.50;1.25;;;22.20;37.60;;;;;;2184285;58;20974;-69
2023/06/02 21:32:40;;;;;;;3.03;1.10;;;22.20;37.70;;;;;;2384836;57;20948;-71
2023/06/02 21:35:08;;;;;;;2.70;1.23;;;22.10;37.70;;;;;;2403851;57;21084;-70
2023/06/02 21:37:34;;;;;;;2.30;1.10;;;22.10;37.80;;;;;;2376747;57;21007;-69
2023/06/02 21:40:06;;;;;;;3.92;1.35;;;22.10;37.80;;;;;;2161639;59;21028;-71
2023/06/02 21:42:32;;;;;;;3.80;1.70;;;21.90;37.80;;;;;;2163431;58;21115;-69
2023/06/02 21:44:58;;;;;;;3.40;1.55;;;21.90;37.90;;;;;;2149614;58;21063;-69
2023/06/02 21:47:25;;;;;;;2.58;1.30;;;21.80;37.90;;;;;;2158094;58;21040;-70
2023/06/02 21:49:51;;;;;;;2.90;1.40;;;21.80;38.00;;;;;;2155127;58;20997;-70
2023/06/02 21:52:17;;;;;;;2.30;1.20;;;21.70;38.00;;;;;;2161967;58;21927;-70
2023/06/02 21:54:45;;;;;;;3.20;1.52;;;21.70;38.10;;;;;;2392052;57;21006;-70
2023/06/02 21:57:11;;;;;;;2.80;1.40;;;21.60;38.20;;;;;;2185272;58;20998;-69
2023/06/02 21:59:39;;;;;;;3.67;1.48;;;21.50;38.20;;;;;;2397254;57;21859;-69
2023/06/02 22:02:08;;;;;;;2.50;1.30;;;21.50;38.30;;;;;;2397604;57;21798;-69
2023/06/02 22:04:35;;;;;;;2.17;1.20;;;21.40;38.40;;;;;;2184408;58;21038;-69
2023/06/02 22:07:03;;;;;;;3.70;1.80;;;21.30;38.30;;;;;;2185187;58;20979;-69
2023/06/02 22:09:30;;;;;;;3.03;1.35;;;21.20;38.40;;;;;;2396881;57;21351;-69
2023/06/02 22:11:57;;;;;;;4.65;1.33;;;21.20;38.50;;;;;;2186504;58;21089;-70
2023/06/02 22:14:24;;;;;;;3.78;1.70;;;21.20;38.60;;;;;;2180430;58;21781;-72
2023/06/02 22:16:50;;;;;;;4.43;1.45;;;21.10;38.60;;;;;;2185029;58;21049;-70
2023/06/02 22:19:16;;;;;;;3.58;1.60;;;21.00;38.60;;;;;;2184772;58;21099;-69
2023/06/02 22:21:43;;;;;;;4.82;1.80;;;20.90;38.70;;;;;;2184762;58;20966;-69
2023/06/02 22:24:12;;;;;;;3.00;1.40;;;20.90;38.70;;;;;;2397288;57;21759;-71
2023/06/02 22:26:41;;;;;;;3.22;1.30;;;20.80;38.70;;;;;;2397479;57;21046;-69
2023/06/02 22:29:08;;;;;;;2.47;1.27;;;20.80;38.90;;;;;;2397582;57;21251;-69
2023/06/02 22:31:34;;;;;;;4.10;1.58;;;20.70;38.90;;;;;;2184227;58;20999;-69
2023/06/02 22:34:01;;;;;;;3.58;1.80;;;20.70;39.00;;;;;;2184946;58;20970;-69
2023/06/02 22:36:27;;;;;;;2.47;1.30;;;20.60;39.10;;;;;;2184025;58;21015;-69
2023/06/02 22:38:56;;;;;;;2.67;1.10;;;20.50;39.10;;;;;;2184836;58;20955;-71
2023/06/02 22:41:25;;;;;;;2.87;1.35;;;20.50;39.30;;;;;;2184410;58;20939;-69
2023/06/02 22:43:52;;;;;;;2.67;1.52;;;20.50;39.30;;;;;;2184338;58;21479;-69
2023/06/02 22:46:18;;;;;;;2.87;1.30;;;20.40;39.40;;;;;;2183076;58;20995;-70
2023/06/02 22:48:49;;;;;;;3.70;2.00;;;20.40;39.40;;;;;;2179043;58;20971;-70
2023/06/02 22:51:16;;;;;;;2.60;1.30;;;20.30;39.50;;;;;;2183611;58;21523;-69
2023/06/02 22:53:42;;;;;;;2.70;1.27;;;20.30;39.50;;;;;;2396900;57;21048;-69
2023/06/02 22:56:09;;;;;;;3.05;1.30;;;20.20;39.60;;;;;;2184577;58;21026;-71
2023/06/02 22:58:35;;;;;;;2.92;1.30;;;20.20;39.80;;;;;;2184010;58;21337;-72
2023/06/02 23:01:02;;;;;;;3.70;1.50;;;20.20;39.80;;;;;;2184874;58;21031;-71
2023/06/02 23:03:28;;;;;;;2.33;1.27;;;20.10;39.80;;;;;;2184208;58;21039;-69
2023/06/02 23:05:54;;;;;;;2.90;1.40;;;20.10;39.90;;;;;;2397946;57;20958;-68
2023/06/02 23:08:21;;;;;;;3.15;1.60;;;20.10;40.00;;;;;;2184684;58;20955;-70
2023/06/02 23:10:48;;;;;;;2.60;1.37;;;20.00;40.00;;;;;;2184769;58;20967;-70
2023/06/02 23:13:14;;;;;;;3.37;1.37;;;20.00;40.00;;;;;;2184595;58;20962;-72
2023/06/02 23:15:44;;;;;;;2.97;1.25;;;19.90;40.00;;;;;;2397170;57;20931;-71
2023/06/02 23:18:11;;;;;;;4.47;1.40;;;19.90;40.00;;;;;;2184775;58;21078;-72
2023/06/02 23:20:38;;;;;;;3.45;1.48;;;19.80;40.00;;;;;;2395569;57;21039;-69
2023/06/02 23:23:07;;;;;;;2.35;1.20;;;19.80;40.20;;;;;;2178326;58;21664;-70
2023/06/02 23:25:34;;;;;;;2.60;1.20;;;19.80;40.30;;;;;;2186018;58;20967;-68
2023/06/02 23:28:03;;;;;;;2.30;1.12;;;19.50;40.10;;;;;;2385198;57;20982;-69
2023/06/02 23:30:30;;;;;;;2.67;1.10;;;19.60;40.20;;;;;;2382020;57;21383;-69
2023/06/02 23:32:56;;;;;;;2.78;1.37;;;19.60;40.40;;;;;;2172006;58;21754;-71
2023/06/02 23:35:23;;;;;;;2.30;1.23;;;19.50;40.40;;;;;;2172712;58;20963;-69
2023/06/02 23:37:52;;;;;;;2.85;1.45;;;19.50;40.50;;;;;;2382598;57;21472;-69
2023/06/02 23:40:18;;;;;;;2.95;1.40;;;19.40;40.50;;;;;;2166181;58;21016;-69
2023/06/02 23:42:45;;;;;;;3.22;1.67;;;19.40;40.60;;;;;;2172553;58;21616;-69
2023/06/02 23:45:11;;;;;;;3.03;1.50;;;19.40;40.90;;;;;;2172274;58;21626;-69
2023/06/02 23:47:37;;;;;;;3.47;1.45;;;19.30;41.00;;;;;;2165601;58;21004;-71
2023/06/02 23:50:04;;;;;;;4.15;1.58;;;19.30;41.00;;;;;;2171802;58;20975;-71
2023/06/02 23:52:31;;;;;;;4.32;1.55;;;19.20;40.90;;;;;;2171821;58;21024;-68
2023/06/02 23:54:57;;;;;;;3.45;1.60;;;19.20;41.10;;;;;;2172639;58;21433;-69
2023/06/02 23:57:23;;;;;;;3.20;1.40;;;19.20;41.30;;;;;;2382395;57;20986;-69
2023/06/02 23:59:50;;;;;;;2.40;1.50;;;19.10;41.20;;;;;;2172158;59;21008;-70
